x

Buoy B01 - Western Maine Shelf (44030) Wave Buoy

11:04am - Sat 20th Dec 2014 All times are EST. -5 hours from GMT.

  • Sig Wave height 3.3ft
  • Peak Period 5s
  • Wind
    18mph, 22mph gusts
  • Sea Temp 47°f
  • Air Temp 32°f
  • Sea Pressure 1024.5mb
  • Buoy B01 - Western Maine Shelf
  • Buoy B01 - Western Maine Shelf

More Historic Weather Station data

Upgrade to MSW Pro to gain access to the past 30 days of data for over 8000 Wavebouys and Weather Stations around the globe.

Join Pro

Comparision Forecast

View Surf forecast
   
Sat 12/20 11:04am 3.5ft 5s 18 22 mph 1024.5mb 47f 32f
10:04am 3ft 5s 16 18 mph 1024.8mb 47f 32f
9:04am 3.5ft 5s 9 13 mph 1025mb 47f 32f
8:04am 3.5ft 5s 13 16 mph 1024mb 47f 32f
7:04am 3.5ft 5s 18 22 mph 1023mb 47f 32f
6:04am 3.5ft 5s 18 22 mph 1022.5mb 46f 32f
5:04am 4.5ft 5s 18 22 mph 1021.8mb 46f 32f
4:04am 3.5ft 5s 20 25 mph 1021.4mb 46f 33f
3:04am 3.5ft 5s 18 22 mph 1021.3mb 46f 33f
2:04am 3ft 4s 20 25 mph 1021mb 45f 34f
1:04am 3ft 4s 18 22 mph 1020mb 45f 34f
12:04am 2.5ft 4s 16 20 mph 1019.4mb 45f 34f
Fri 12/19 11:04pm 2.5ft 4s 16 18 mph 1018.9mb 45f 34f
10:04pm 2.5ft 4s 16 18 mph 1018.4mb 45f 34f
9:04pm 2ft 3s 16 20 mph 1017.6mb 45f 35f
8:04pm 2ft 3s 9 13 mph 1017mb 45f 35f
7:04pm 2ft 3s 13 16 mph 1016.2mb 45f 36f
6:04pm 1.3ft 3s 11 13 mph 1015.1mb 45f 37f
5:04pm 1ft 4s 2 4 mph 1014.4mb 45f 37f
4:04pm 1.6ft 11s  -  2 mph 1013.7mb 44f 38f
3:04pm 1.3ft 8s 4
mph
1012.9mb 44f 37f
2:04pm 1.3ft 11s 2 4 mph 1012.4mb 44f 38f
1:04pm 1.6ft 11s 2
mph
1012mb 44f 38f
12:04pm 1.3ft 11s 4 7 mph 1012.1mb 44f 35f
11:04am 1.6ft 11s 9 11 mph 1012.3mb 44f 34f
10:04am 1.6ft 11s 11 13 mph 1012.3mb 45f 34f
9:04am 1.3ft 3s 13 16 mph 1011.8mb 45f 34f
8:04am 1.6ft 3s 13 18 mph 1010.9mb 45f 34f
7:04am 1.3ft 3s 16 18 mph 1010.5mb 45f 34f
6:04am 1.3ft 3s 13 18 mph 1009.7mb 45f 34f
5:04am 1.3ft 2s 13 18 mph 1009.4mb 45f 35f
4:04am 1.3ft 2s 16 20 mph 1009.3mb 45f 35f
3:04am 1.3ft 2s 13 16 mph 1009.4mb 45f 35f
2:04am 1.6ft 3s 16 20 mph 1009.2mb 45f 36f
1:04am 2ft 3s 16 20 mph 1008.8mb 45f 36f
12:04am 2.5ft 3s 18 20 mph 1008.2mb 45f 37f
Thu 12/18 11:04pm 2.5ft 3s 18 22 mph 1008.2mb 46f 37f
10:04pm 2.5ft 3s 20 22 mph 1008.1mb 46f 37f
9:04pm 3ft 3s 22 27 mph 1008mb 46f 38f
8:04pm 2.5ft 3s 20 27 mph 1007.8mb 46f 38f
7:04pm 2.5ft 3s 22 25 mph 1007.5mb 46f 39f
6:04pm 2.5ft 3s 20 25 mph 1007.1mb 46f 40f
5:04pm 2.5ft 3s 22 27 mph 1006.6mb 46f 41f
4:04pm 3ft 4s 25 31 mph 1006.1mb 46f 41f
3:04pm 3.5ft 4s 22 27 mph 1005.3mb 46f 42f
2:04pm 3ft 4s 25 29 mph 1004.7mb 46f 43f
1:04pm 3.5ft 4s 25 29 mph 1004.2mb 46f 43f
12:04pm 3ft 3s 22 29 mph 1004.3mb 46f 42f
11:04am 2.5ft 3s 20 25 mph 1004.6mb 46f 41f
10:04am 2.5ft 3s 20 27 mph 1004.9mb 46f 40f
9:04am 3ft 8s 18 22 mph 1004.3mb 45f 40f
8:04am 2ft 3s 18 22 mph 1003.9mb 46f 39f
7:04am 3.5ft 8s 20 22 mph 1003.4mb 46f 39f
6:04am 3.5ft 8s 18 22 mph 1003mb 46f 39f
5:04am 4ft 8s 18 22 mph 1002.7mb 46f 40f
4:04am 4.5ft 8s 20 22 mph 1002.7mb 46f 41f
3:04am 4.5ft 8s 18 22 mph 1002.8mb 46f 41f
2:04am 5ft 8s 18 20 mph 1003mb 46f 42f
1:04am 6ft 8s 9 11 mph 1003mb 46f 42f
12:04am 5.5ft 8s 7 9 mph 1003.3mb 47f 42f
Wed 12/17 11:04pm 7ft 8s 11 13 mph 1003.7mb 47f 42f
10:04pm 6ft 8s 16 20 mph 1003.6mb 47f 41f
9:04pm 6ft 8s 16 18 mph 1003.7mb 47f 41f
8:04pm 6ft 8s 18 20 mph 1004.1mb 47f 42f
7:04pm 5ft 8s 16 20 mph 1003.9mb 47f 42f
6:04pm 5.5ft 8s 18 22 mph 1003.9mb 47f 42f
5:04pm 5.5ft 8s 22 27 mph 1003.1mb 47f 42f
4:04pm 5ft 6s 25 29 mph 1002.8mb 47f 43f
3:04pm 4.5ft 6s 22 27 mph 1002.8mb 47f 42f
2:04pm 5ft 6s 22 25 mph 1002.4mb 46f 42f
1:04pm 4.5ft 6s 22 27 mph 1002.3mb 46f 42f
12:04pm 4.5ft 5s 20 22 mph 1002.6mb 46f 42f
11:04am 4.5ft 5s 20 25 mph 1003.5mb 46f 42f
10:04am 4.5ft 5s 20 25 mph 1004.4mb 46f 43f
9:04am 4.5ft 5s 22 27 mph 1005mb 45f 43f
8:04am 4.5ft 5s 22 29 mph 1005.8mb 45f 42f
7:04am 3.5ft 5s 20 22 mph 1006.8mb 45f 42f
6:04am 3.5ft 5s 16 18 mph 1007.7mb 45f 47f
5:04am 3.5ft 5s 16 20 mph 1008.2mb 45f 47f
4:04am 2.5ft 4s 16 18 mph 1009.2mb 45f 47f
3:04am 2.5ft 4s 16 18 mph 1010.4mb 44f 47f
2:04am 2ft 4s 11 13 mph 1011.6mb 44f 47f
1:04am  -   -  9
mph
1012.1mb 44f 46f
12:04am  -   -  4 7 mph 1013mb 44f 46f
Tue 12/16 11:04pm 2.5ft 11s 7
mph
1013.9mb 44f 44f
10:04pm 2ft 11s 7
mph
1014.8mb 44f 44f
9:04pm 2ft 11s 7 9 mph 1014.9mb 44f 42f
8:04pm 2ft 11s 7 9 mph 1015.5mb 44f 41f
7:04pm 2ft 11s 4 7 mph 1016.1mb 44f 39f
6:04pm 1.6ft 11s 2
mph
1016.8mb 44f 39f